Time;durP1;ratioP1;P1;durP2;ratioP2;P2;SDS_P1;SDS_P2;PMS_P1;PMS_P2;Temp;Humidity;BMP_temperature;BMP_pressure;BME280_temperature;BME280_humidity;BME280_pressure;Samples;Min_cycle;Max_cycle;Signal;HPM_P1;HPM_P2
2023/06/11 00:00:09;;;;;;;12.95;3.83;;;18.40;99.90;;;;;;4932231;29;20142;-85
2023/06/11 00:02:35;;;;;;;10.07;4.55;;;18.40;99.90;;;;;;4932788;29;20492;-86
2023/06/11 00:05:07;;;;;;;13.45;4.65;;;18.40;99.90;;;;;;4932636;29;20047;-86
2023/06/11 00:07:34;;;;;;;11.88;4.90;;;18.40;99.90;;;;;;4916430;29;20546;-86
2023/06/11 00:10:01;;;;;;;9.98;5.07;;;18.30;99.90;;;;;;4916252;29;20071;-86
2023/06/11 00:12:27;;;;;;;12.30;4.97;;;18.30;99.90;;;;;;4932561;29;20054;-86
2023/06/11 00:14:53;;;;;;;13.02;5.03;;;18.30;99.90;;;;;;4931819;29;20043;-86
2023/06/11 00:17:18;;;;;;;13.55;4.82;;;18.30;99.90;;;;;;4917059;29;20060;-85
2023/06/11 00:19:45;;;;;;;10.27;5.07;;;18.20;99.90;;;;;;4931746;29;20511;-86
2023/06/11 00:22:12;;;;;;;13.52;4.78;;;18.20;99.90;;;;;;4916445;29;20610;-86
2023/06/11 00:24:37;;;;;;;17.52;5.20;;;18.20;99.90;;;;;;4931662;29;20047;-86
2023/06/11 00:27:03;;;;;;;11.73;5.25;;;18.20;99.90;;;;;;4916076;29;20073;-86
2023/06/11 00:29:30;;;;;;;13.68;5.13;;;18.10;99.90;;;;;;4934578;28;20050;-85
2023/06/11 00:31:56;;;;;;;13.43;4.82;;;18.00;99.90;;;;;;4926556;29;20403;-86
2023/06/11 00:34:21;;;;;;;12.90;4.90;;;18.00;99.90;;;;;;4909056;29;20491;-86
2023/06/11 00:36:47;;;;;;;12.65;4.72;;;17.90;99.90;;;;;;4932924;29;20046;-86
2023/06/11 00:39:13;;;;;;;14.82;5.63;;;17.80;99.90;;;;;;4915552;29;20047;-86
2023/06/11 00:41:45;;;;;;;12.35;5.38;;;17.70;99.90;;;;;;4916151;29;20050;-85
2023/06/11 00:44:21;;;;;;;11.07;5.30;;;17.70;99.90;;;;;;4915869;29;20039;-86
2023/06/11 00:46:48;;;;;;;14.55;5.97;;;17.60;99.90;;;;;;4917529;29;20659;-86
2023/06/11 00:49:14;;;;;;;12.32;5.55;;;17.50;99.90;;;;;;4931267;29;20154;-86
2023/06/11 00:51:42;;;;;;;16.02;5.50;;;17.50;99.90;;;;;;4916863;29;20059;-86
2023/06/11 00:54:12;;;;;;;15.32;5.93;;;17.40;99.90;;;;;;4931042;29;20083;-86
2023/06/11 00:56:41;;;;;;;13.65;5.38;;;17.30;99.90;;;;;;4916576;29;20118;-86
2023/06/11 00:59:07;;;;;;;10.00;5.38;;;17.30;99.90;;;;;;4916265;29;20043;-86
2023/06/11 01:01:41;;;;;;;9.80;5.85;;;17.20;99.90;;;;;;4916711;29;20392;-85
2023/06/11 01:04:17;;;;;;;13.50;6.28;;;17.20;99.90;;;;;;4931552;29;20112;-86
2023/06/11 01:06:49;;;;;;;10.45;5.95;;;17.10;99.90;;;;;;4915836;29;20094;-86
2023/06/11 01:09:19;;;;;;;11.23;6.20;;;17.10;99.90;;;;;;4914868;29;20098;-85
2023/06/11 01:11:45;;;;;;;10.20;6.28;;;17.00;99.90;;;;;;4916195;29;20479;-86
2023/06/11 01:14:13;;;;;;;14.70;6.50;;;17.00;99.90;;;;;;4915973;29;20051;-85
2023/06/11 01:16:46;;;;;;;11.80;6.50;;;16.90;99.90;;;;;;4935911;29;20047;-85
2023/06/11 01:19:20;;;;;;;;;;;16.80;99.90;;;;;;4916416;29;20051;-85
2023/06/11 01:21:52;;;;;;;15.05;7.20;;;16.80;99.90;;;;;;4951621;28;19973;-86
2023/06/11 01:24:28;;;;;;;14.77;6.50;;;16.80;99.90;;;;;;4917224;29;20043;-85
2023/06/11 01:27:09;;;;;;;10.98;6.38;;;16.70;99.90;;;;;;4922319;29;20046;-86
2023/06/11 01:29:45;;;;;;;16.50;6.57;;;16.70;99.90;;;;;;4919672;29;20118;-85
2023/06/11 01:32:12;;;;;;;12.90;6.28;;;16.70;99.90;;;;;;4919535;29;20074;-84
2023/06/11 01:34:41;;;;;;;11.90;6.45;;;16.70;99.90;;;;;;4919067;29;20099;-83
2023/06/11 01:37:09;;;;;;;16.63;6.70;;;16.70;99.90;;;;;;4919434;29;20704;-84
2023/06/11 01:39:35;;;;;;;14.32;6.80;;;16.60;99.90;;;;;;4918349;29;20511;-84
2023/06/11 01:42:01;;;;;;;14.63;7.05;;;16.60;99.90;;;;;;4935915;29;20082;-85
2023/06/11 01:44:28;;;;;;;9.50;6.60;;;16.60;99.90;;;;;;4933291;29;20067;-84
2023/06/11 01:46:53;;;;;;;11.07;7.38;;;16.60;99.90;;;;;;4935964;29;20035;-84
2023/06/11 01:49:19;;;;;;;15.60;7.55;;;16.60;99.90;;;;;;4919302;29;20451;-84
2023/06/11 01:51:45;;;;;;;15.77;8.18;;;16.60;99.90;;;;;;4935017;29;20109;-84
2023/06/11 01:54:10;;;;;;;12.60;6.88;;;16.50;99.90;;;;;;4934372;29;20090;-84
2023/06/11 01:56:36;;;;;;;14.05;7.95;;;16.50;99.90;;;;;;4935212;29;20046;-84
2023/06/11 01:59:02;;;;;;;18.23;7.40;;;16.50;99.90;;;;;;4934723;29;20054;-84
2023/06/11 02:01:28;;;;;;;13.30;7.47;;;16.50;99.90;;;;;;4935062;29;20133;-84
2023/06/11 02:03:55;;;;;;;11.82;7.75;;;16.50;99.90;;;;;;4919146;29;20047;-84
2023/06/11 02:06:21;;;;;;;12.02;8.25;;;16.40;99.90;;;;;;4918577;29;20047;-84
2023/06/11 02:08:46;;;;;;;17.25;7.72;;;16.40;99.90;;;;;;4918965;29;20111;-84
2023/06/11 02:11:12;;;;;;;15.30;7.85;;;16.40;99.90;;;;;;4918449;29;20082;-85
2023/06/11 02:13:38;;;;;;;14.65;8.15;;;16.40;99.90;;;;;;4930937;29;20046;-85
2023/06/11 02:16:04;;;;;;;11.30;7.65;;;16.30;99.90;;;;;;4918892;29;20126;-85
2023/06/11 02:18:29;;;;;;;13.45;7.65;;;16.30;99.90;;;;;;4914741;29;20081;-85
2023/06/11 02:20:55;;;;;;;11.98;7.25;;;16.30;99.90;;;;;;4934329;29;20098;-84
2023/06/11 02:23:21;;;;;;;12.77;7.78;;;16.20;99.90;;;;;;4933825;29;20185;-84
2023/06/11 02:25:47;;;;;;;12.60;7.53;;;16.20;99.90;;;;;;4918649;29;20043;-84
2023/06/11 02:28:12;;;;;;;20.77;8.93;;;16.20;99.90;;;;;;4916871;29;20039;-84
2023/06/11 02:30:38;;;;;;;11.63;8.20;;;16.10;99.90;;;;;;4918719;29;20059;-85
2023/06/11 02:33:04;;;;;;;12.05;7.80;;;16.20;99.90;;;;;;4933881;29;20050;-84
2023/06/11 02:35:29;;;;;;;13.90;7.72;;;16.10;99.90;;;;;;4917619;29;20101;-84
2023/06/11 02:37:55;;;;;;;14.60;7.57;;;16.10;99.90;;;;;;4935134;29;20531;-85
2023/06/11 02:40:21;;;;;;;13.40;8.55;;;16.00;99.90;;;;;;4932414;29;20097;-84
2023/06/11 02:42:46;;;;;;;12.60;8.23;;;16.00;99.90;;;;;;4934807;29;20047;-85
2023/06/11 02:45:12;;;;;;;13.98;7.72;;;16.00;99.90;;;;;;4919077;29;20051;-84
2023/06/11 02:47:38;;;;;;;14.88;8.27;;;15.90;99.90;;;;;;4933680;29;20487;-84
2023/06/11 02:50:04;;;;;;;12.70;7.90;;;16.00;99.90;;;;;;4918759;29;20153;-84
2023/06/11 02:52:30;;;;;;;10.00;8.35;;;15.90;99.90;;;;;;4934090;29;20058;-84
2023/06/11 02:54:55;;;;;;;14.52;8.20;;;15.90;99.90;;;;;;4917482;29;20495;-85
2023/06/11 02:57:21;;;;;;;18.65;8.57;;;15.90;99.90;;;;;;4933781;29;20395;-84
2023/06/11 02:59:47;;;;;;;13.75;8.65;;;15.80;99.90;;;;;;4934148;29;20050;-85
2023/06/11 03:02:12;;;;;;;13.40;8.20;;;15.80;99.90;;;;;;4933600;29;20047;-85
2023/06/11 03:04:38;;;;;;;13.60;8.85;;;15.80;99.90;;;;;;4934009;29;20118;-84
2023/06/11 03:07:04;;;;;;;13.85;8.60;;;15.80;99.90;;;;;;4918538;29;20047;-85
2023/06/11 03:09:29;;;;;;;9.55;8.32;;;15.80;99.90;;;;;;4916874;29;20061;-85
2023/06/11 03:11:55;;;;;;;14.10;8.25;;;15.70;99.90;;;;;;4934494;29;20051;-84
2023/06/11 03:14:21;;;;;;;15.60;8.10;;;15.70;99.90;;;;;;4925239;29;20506;-84
2023/06/11 03:16:47;;;;;;;11.93;8.05;;;15.70;99.90;;;;;;4917315;29;20047;-85
2023/06/11 03:19:13;;;;;;;10.50;8.45;;;15.70;99.90;;;;;;4930061;29;20415;-85
2023/06/11 03:21:38;;;;;;;12.48;8.65;;;15.70;99.90;;;;;;4933902;29;20054;-84
2023/06/11 03:24:05;;;;;;;16.65;8.98;;;15.70;99.90;;;;;;4916984;29;20047;-84
2023/06/11 03:26:30;;;;;;;12.65;9.40;;;15.70;99.90;;;;;;4918356;29;20055;-84
2023/06/11 03:28:56;;;;;;;15.20;9.55;;;15.70;99.90;;;;;;4933862;29;20138;-84
2023/06/11 03:31:22;;;;;;;18.48;9.40;;;15.70;99.90;;;;;;4933165;29;20086;-84
2023/06/11 03:33:47;;;;;;;16.45;9.15;;;15.70;99.90;;;;;;4918028;29;20394;-85
2023/06/11 03:36:13;;;;;;;15.98;8.98;;;15.80;99.90;;;;;;4932432;29;20047;-84
2023/06/11 03:38:38;;;;;;;14.05;9.40;;;15.80;99.90;;;;;;4932721;29;20500;-85
2023/06/11 03:41:04;;;;;;;13.48;9.77;;;15.80;99.90;;;;;;4932365;29;20069;-84
2023/06/11 03:43:30;;;;;;;14.93;8.73;;;15.80;99.90;;;;;;4933062;29;20058;-85
2023/06/11 03:45:55;;;;;;;12.77;9.27;;;15.90;99.90;;;;;;4932223;29;20035;-84
2023/06/11 03:48:21;;;;;;;14.90;8.52;;;15.90;99.90;;;;;;4916958;29;20538;-85
2023/06/11 03:50:47;;;;;;;13.32;9.27;;;15.90;99.90;;;;;;4916987;29;20392;-85
2023/06/11 03:53:14;;;;;;;11.70;8.85;;;15.90;99.90;;;;;;4917415;29;20420;-85
2023/06/11 03:55:40;;;;;;;14.32;9.13;;;16.00;99.90;;;;;;4932682;29;20066;-84
2023/06/11 03:58:06;;;;;;;11.43;8.80;;;16.00;99.90;;;;;;4932641;29;20078;-85
2023/06/11 04:00:32;;;;;;;12.90;9.05;;;16.00;99.90;;;;;;4916719;29;20047;-85
2023/06/11 04:02:59;;;;;;;14.48;8.75;;;16.00;99.90;;;;;;4933745;29;20525;-85
2023/06/11 04:05:25;;;;;;;15.05;8.73;;;16.10;99.90;;;;;;4915926;29;20139;-85
2023/06/11 04:07:50;;;;;;;14.35;8.90;;;16.10;99.90;;;;;;4933706;29;20126;-87
2023/06/11 04:10:16;;;;;;;12.98;8.75;;;16.10;99.90;;;;;;4916411;29;20076;-85
2023/06/11 04:12:42;;;;;;;15.52;8.93;;;16.10;99.90;;;;;;4916099;29;20051;-85
2023/06/11 04:15:08;;;;;;;12.77;8.82;;;16.20;99.90;;;;;;4917426;29;20631;-85
2023/06/11 04:17:34;;;;;;;15.73;8.35;;;16.20;99.90;;;;;;4916858;29;20043;-85
2023/06/11 04:20:00;;;;;;;15.23;8.60;;;16.30;99.90;;;;;;4928733;29;20051;-85
2023/06/11 04:22:26;;;;;;;14.25;8.82;;;16.30;99.90;;;;;;4932545;29;20473;-85
2023/06/11 04:24:53;;;;;;;14.25;8.85;;;16.30;99.90;;;;;;4916046;29;20470;-85
2023/06/11 04:27:20;;;;;;;11.48;8.18;;;16.50;99.90;;;;;;4916243;29;20054;-85
2023/06/11 04:29:48;;;;;;;13.57;7.90;;;16.50;99.90;;;;;;4931718;29;20047;-85
2023/06/11 04:32:16;;;;;;;12.15;8.80;;;16.50;99.90;;;;;;4917264;29;20047;-85
2023/06/11 04:34:43;;;;;;;12.70;8.43;;;16.60;99.90;;;;;;4931429;29;20110;-86
2023/06/11 04:37:09;;;;;;;12.57;7.88;;;16.60;99.90;;;;;;4917168;29;20047;-86
2023/06/11 04:39:35;;;;;;;14.50;9.13;;;16.70;99.90;;;;;;4915451;29;20039;-85
2023/06/11 04:42:02;;;;;;;12.57;8.45;;;16.80;99.90;;;;;;4915765;29;20093;-85
2023/06/11 04:44:28;;;;;;;14.85;8.48;;;16.90;99.90;;;;;;4916318;29;20521;-85
2023/06/11 04:46:57;;;;;;;15.32;8.25;;;16.90;99.90;;;;;;4916559;29;20051;-85
2023/06/11 04:49:23;;;;;;;13.60;7.78;;;17.00;99.90;;;;;;4918884;29;20123;-85
2023/06/11 04:51:52;;;;;;;13.68;8.52;;;17.10;99.90;;;;;;4932415;29;20043;-85
2023/06/11 04:54:21;;;;;;;16.40;8.43;;;17.10;99.90;;;;;;4915102;29;20051;-85
2023/06/11 04:56:47;;;;;;;14.70;8.57;;;17.20;99.90;;;;;;4932288;28;20054;-86
2023/06/11 04:59:13;;;;;;;17.55;8.77;;;17.30;99.90;;;;;;4915312;29;20105;-85
2023/06/11 05:01:46;;;;;;;12.05;8.38;;;17.30;99.90;;;;;;4915540;29;20043;-85
2023/06/11 05:04:13;;;;;;;13.85;8.93;;;17.50;99.90;;;;;;4929421;29;20046;-85
2023/06/11 05:06:44;;;;;;;12.52;8.40;;;17.60;99.90;;;;;;4927595;28;20051;-85
2023/06/11 05:09:11;;;;;;;14.82;8.93;;;17.60;99.90;;;;;;4933288;28;20197;-85
2023/06/11 05:11:37;;;;;;;13.38;7.90;;;17.80;99.90;;;;;;4942110;28;20074;-85
2023/06/11 05:14:03;;;;;;;10.65;7.75;;;17.80;99.90;;;;;;4916083;29;20105;-85
2023/06/11 05:16:29;;;;;;;13.73;8.07;;;17.90;99.90;;;;;;4931138;29;20126;-85
2023/06/11 05:18:54;;;;;;;14.88;7.47;;;18.00;99.90;;;;;;4912668;29;20046;-85
2023/06/11 05:21:20;;;;;;;13.48;8.18;;;18.10;99.90;;;;;;4915773;29;20051;-85
2023/06/11 05:23:46;;;;;;;13.90;8.13;;;18.20;99.90;;;;;;4915745;29;20380;-86
2023/06/11 05:26:12;;;;;;;12.05;8.02;;;18.30;99.90;;;;;;4934049;28;20561;-85
2023/06/11 05:28:39;;;;;;;11.18;7.78;;;18.40;99.90;;;;;;4926937;29;20039;-85
2023/06/11 05:31:06;;;;;;;14.07;7.85;;;18.50;99.90;;;;;;4908986;29;20048;-86
2023/06/11 05:33:32;;;;;;;14.95;7.65;;;18.60;99.90;;;;;;4916020;29;20049;-86
2023/06/11 05:35:57;;;;;;;18.35;7.50;;;18.70;99.90;;;;;;4934256;28;20038;-85
2023/06/11 05:38:24;;;;;;;9.63;6.82;;;18.80;99.90;;;;;;4927498;29;20165;-86
2023/06/11 05:40:50;;;;;;;12.57;7.60;;;19.00;99.90;;;;;;4915264;29;20517;-86
2023/06/11 05:43:16;;;;;;;20.42;7.53;;;19.00;99.90;;;;;;4915624;29;20525;-86
2023/06/11 05:45:48;;;;;;;14.85;7.35;;;19.20;99.90;;;;;;4931312;29;20090;-86
2023/06/11 05:48:14;;;;;;;11.65;7.15;;;19.20;99.90;;;;;;4931778;29;20418;-86
2023/06/11 05:50:40;;;;;;;13.82;7.32;;;19.40;99.90;;;;;;4914820;29;20134;-85
2023/06/11 05:53:06;;;;;;;14.27;6.75;;;19.40;99.90;;;;;;4915686;29;20126;-83
2023/06/11 05:55:31;;;;;;;13.75;6.85;;;19.50;99.90;;;;;;4929876;29;20061;-83
2023/06/11 05:57:57;;;;;;;9.68;6.50;;;19.70;99.90;;;;;;4930632;29;20055;-84
2023/06/11 06:00:23;;;;;;;10.95;6.90;;;19.80;99.90;;;;;;4930506;29;20055;-84
2023/06/11 06:02:48;;;;;;;12.52;6.75;;;19.90;99.90;;;;;;4916013;29;20422;-83
2023/06/11 06:05:15;;;;;;;13.45;6.60;;;20.00;99.90;;;;;;4912967;29;20039;-84
2023/06/11 06:07:41;;;;;;;13.68;6.75;;;20.10;99.90;;;;;;4915446;29;20083;-84
2023/06/11 06:10:07;;;;;;;13.02;7.10;;;20.20;99.90;;;;;;4926829;28;20133;-84
2023/06/11 06:12:33;;;;;;;12.45;6.38;;;20.30;99.90;;;;;;4918053;29;20043;-84
2023/06/11 06:14:58;;;;;;;10.68;6.30;;;20.40;99.90;;;;;;4922468;29;20051;-84
2023/06/11 06:17:24;;;;;;;16.15;6.80;;;20.50;99.90;;;;;;4933807;29;20035;-84
2023/06/11 06:19:50;;;;;;;13.93;6.53;;;20.60;99.90;;;;;;4933577;29;20129;-84
2023/06/11 06:22:18;;;;;;;12.50;6.63;;;20.70;99.90;;;;;;4934001;29;20061;-84
2023/06/11 06:24:44;;;;;;;14.40;6.45;;;20.80;99.90;;;;;;4935228;29;20185;-85
2023/06/11 06:27:10;;;;;;;16.10;6.70;;;20.80;99.90;;;;;;4934073;29;20058;-88
2023/06/11 06:29:38;;;;;;;14.05;6.22;;;20.90;99.90;;;;;;4919511;29;20172;-88
2023/06/11 06:32:05;;;;;;;12.40;5.97;;;21.00;99.90;;;;;;4916018;29;20444;-88
2023/06/11 06:34:31;;;;;;;17.65;6.03;;;21.20;99.90;;;;;;4918149;29;20047;-88
2023/06/11 06:36:57;;;;;;;15.50;6.38;;;21.30;99.90;;;;;;4920127;29;20098;-87
2023/06/11 06:39:22;;;;;;;9.57;5.65;;;21.40;99.90;;;;;;4917952;29;20118;-87
2023/06/11 06:41:48;;;;;;;14.60;6.72;;;21.40;99.90;;;;;;4934934;29;20039;-86
2023/06/11 06:44:14;;;;;;;12.23;6.00;;;21.50;99.90;;;;;;4918704;29;20043;-89
2023/06/11 06:46:39;;;;;;;9.73;5.68;;;21.60;99.90;;;;;;4935169;29;20054;-87
2023/06/11 06:49:05;;;;;;;9.73;5.88;;;21.70;99.90;;;;;;4920745;29;20095;-88
2023/06/11 06:51:32;;;;;;;10.98;6.60;;;21.70;99.90;;;;;;4921045;29;20054;-89
2023/06/11 06:53:58;;;;;;;12.25;5.60;;;21.80;99.90;;;;;;4937344;29;20086;-87
2023/06/11 06:56:24;;;;;;;14.35;5.93;;;21.90;99.90;;;;;;4911620;29;20063;-87
2023/06/11 06:58:50;;;;;;;11.85;5.82;;;22.00;99.90;;;;;;4949915;29;20043;-88
2023/06/11 07:01:16;;;;;;;9.65;5.85;;;22.20;99.90;;;;;;4919998;29;20499;-87
2023/06/11 07:03:42;;;;;;;9.45;5.80;;;22.30;99.90;;;;;;4923027;29;20047;-87
2023/06/11 07:06:08;;;;;;;15.68;5.80;;;22.40;99.90;;;;;;4920849;29;20408;-87
2023/06/11 07:08:34;;;;;;;12.32;6.10;;;22.50;99.90;;;;;;4917811;29;20083;-91
2023/06/11 07:11:01;;;;;;;11.23;6.00;;;22.60;99.90;;;;;;4919641;29;20539;-92
2023/06/11 07:13:27;;;;;;;10.93;5.95;;;22.70;99.90;;;;;;4920078;29;20047;-86
2023/06/11 07:15:52;;;;;;;8.90;4.90;;;22.80;99.90;;;;;;4917922;29;20530;-87
2023/06/11 07:18:18;;;;;;;9.82;5.93;;;22.80;99.90;;;;;;4927926;29;20305;-86
2023/06/11 07:20:44;;;;;;;12.05;6.18;;;23.00;99.90;;;;;;4927948;29;20035;-86
2023/06/11 07:23:10;;;;;;;12.35;5.75;;;23.00;99.90;;;;;;4917796;29;20059;-89
2023/06/11 07:25:37;;;;;;;10.73;6.35;;;23.10;99.90;;;;;;4917711;29;20134;-87
2023/06/11 07:28:04;;;;;;;8.60;5.38;;;23.30;99.90;;;;;;4913198;29;20134;-87
2023/06/11 07:30:32;;;;;;;9.95;5.60;;;23.40;99.90;;;;;;4917341;29;20406;-85
2023/06/11 07:32:59;;;;;;;11.95;5.70;;;23.50;99.90;;;;;;4933337;29;20055;-86
2023/06/11 07:35:26;;;;;;;12.05;5.95;;;23.60;99.90;;;;;;4917495;29;20039;-86
2023/06/11 07:37:53;;;;;;;10.10;5.03;;;23.60;99.90;;;;;;4917281;29;20051;-85
2023/06/11 07:40:19;;;;;;;11.48;5.68;;;23.70;99.90;;;;;;4916734;29;20133;-86
2023/06/11 07:42:46;;;;;;;8.75;5.13;;;23.80;99.90;;;;;;4918059;29;20491;-85
2023/06/11 07:45:13;;;;;;;11.75;5.80;;;23.90;99.90;;;;;;4920147;29;20047;-85
2023/06/11 07:47:39;;;;;;;9.95;5.80;;;24.00;99.90;;;;;;4917987;29;20050;-85
2023/06/11 07:50:06;;;;;;;9.38;5.40;;;24.10;99.90;;;;;;4932008;29;20055;-87
2023/06/11 07:52:32;;;;;;;10.23;5.20;;;24.20;99.90;;;;;;4918344;29;20042;-86
2023/06/11 07:54:57;;;;;;;10.27;5.53;;;24.30;99.90;;;;;;4916835;29;20403;-85
2023/06/11 07:57:23;;;;;;;12.30;5.75;;;24.30;99.90;;;;;;4916579;29;20467;-85
2023/06/11 07:59:49;;;;;;;11.38;5.75;;;24.40;99.90;;;;;;4917340;29;20499;-85
2023/06/11 08:02:15;;;;;;;15.15;5.43;;;24.40;99.90;;;;;;4932365;29;20558;-85
2023/06/11 08:04:41;;;;;;;10.43;5.65;;;24.50;99.90;;;;;;4916193;29;20035;-85
2023/06/11 08:07:07;;;;;;;15.68;6.25;;;24.60;99.90;;;;;;4917626;29;20043;-86
2023/06/11 08:09:35;;;;;;;12.50;5.68;;;24.70;99.90;;;;;;4915626;29;20046;-85
2023/06/11 08:12:02;;;;;;;9.45;4.47;;;24.70;99.90;;;;;;4913427;29;20051;-86
2023/06/11 08:14:28;;;;;;;10.65;5.43;;;24.80;99.90;;;;;;4914391;29;20452;-85
2023/06/11 08:16:53;;;;;;;9.32;5.28;;;25.00;99.90;;;;;;4920245;29;20558;-85
2023/06/11 08:19:19;;;;;;;12.95;5.25;;;25.10;99.90;;;;;;4915665;29;20558;-86
2023/06/11 08:21:47;;;;;;;10.27;6.10;;;25.10;99.90;;;;;;4916920;29;20035;-86
2023/06/11 08:24:13;;;;;;;12.80;5.05;;;25.20;99.90;;;;;;4925295;29;20081;-86
2023/06/11 08:26:38;;;;;;;17.25;5.90;;;25.30;99.90;;;;;;4915961;29;20107;-85
2023/06/11 08:29:04;;;;;;;10.38;5.47;;;25.40;99.90;;;;;;4916847;29;20582;-86
2023/06/11 08:31:31;;;;;;;8.07;4.97;;;25.40;99.90;;;;;;4915624;28;20519;-85
2023/06/11 08:33:57;;;;;;;11.68;5.53;;;25.50;99.90;;;;;;4916210;29;20043;-86
2023/06/11 08:36:22;;;;;;;13.95;5.18;;;25.60;99.90;;;;;;4932404;29;20046;-86
2023/06/11 08:38:48;;;;;;;13.73;5.50;;;25.70;99.90;;;;;;4916682;29;20066;-86
2023/06/11 08:41:15;;;;;;;10.60;5.10;;;25.80;99.90;;;;;;4930581;29;20051;-86
2023/06/11 08:43:42;;;;;;;8.45;4.78;;;25.90;99.90;;;;;;4916088;29;20133;-86
2023/06/11 08:46:14;;;;;;;8.88;5.43;;;26.00;99.90;;;;;;4930830;29;20386;-87
2023/06/11 08:48:42;;;;;;;8.98;5.15;;;26.00;99.90;;;;;;4916132;29;20051;-86
2023/06/11 08:51:10;;;;;;;13.80;5.50;;;26.10;99.90;;;;;;4916382;29;20047;-87
2023/06/11 08:53:36;;;;;;;11.32;5.43;;;26.20;99.90;;;;;;4931258;29;20043;-86
2023/06/11 08:56:03;;;;;;;7.95;4.63;;;26.20;99.90;;;;;;4931939;29;20036;-86
2023/06/11 08:58:32;;;;;;;10.10;5.47;;;26.40;99.90;;;;;;4916287;29;20597;-86
2023/06/11 09:00:57;;;;;;;10.00;4.95;;;26.50;99.90;;;;;;4931631;29;20126;-86
2023/06/11 09:03:23;;;;;;;16.20;5.32;;;26.50;99.90;;;;;;4916387;29;20134;-86
2023/06/11 09:05:50;;;;;;;10.43;4.70;;;26.50;99.90;;;;;;4906423;29;20406;-86
2023/06/11 09:08:16;;;;;;;12.82;4.80;;;26.60;99.90;;;;;;4915816;29;20054;-86
2023/06/11 09:10:49;;;;;;;11.60;5.50;;;26.80;99.90;;;;;;4915263;29;20043;-85
2023/06/11 09:13:17;;;;;;;12.60;5.20;;;26.90;99.90;;;;;;4932788;29;20039;-85
2023/06/11 09:15:52;;;;;;;11.13;5.50;;;26.90;99.90;;;;;;4915399;29;20109;-86
2023/06/11 09:18:19;;;;;;;10.73;4.75;;;27.00;99.90;;;;;;4916128;29;20505;-86
2023/06/11 09:20:50;;;;;;;14.20;4.97;;;27.00;99.90;;;;;;4916943;29;20070;-86
2023/06/11 09:23:27;;;;;;;9.85;4.47;;;27.10;99.90;;;;;;4914715;29;20508;-86
2023/06/11 09:25:53;;;;;;;10.00;4.57;;;27.20;99.90;;;;;;4915582;29;20047;-87
2023/06/11 09:28:20;;;;;;;8.38;4.47;;;27.20;99.90;;;;;;4915122;29;20039;-87
2023/06/11 09:30:54;;;;;;;9.40;4.78;;;27.30;99.90;;;;;;4916667;29;20114;-86
2023/06/11 09:33:20;;;;;;;10.15;4.68;;;27.50;99.90;;;;;;4919775;28;20078;-86
2023/06/11 09:35:46;;;;;;;12.25;4.50;;;27.60;99.90;;;;;;4923010;29;20078;-86
2023/06/11 09:38:15;;;;;;;9.70;4.55;;;27.70;99.90;;;;;;4915888;29;20519;-87
2023/06/11 09:40:46;;;;;;;11.50;4.45;;;27.80;99.90;;;;;;4915587;29;20406;-86
2023/06/11 09:43:12;;;;;;;8.95;4.25;;;27.90;99.90;;;;;;4930921;28;20095;-86
2023/06/11 09:45:38;;;;;;;10.73;4.65;;;27.90;99.90;;;;;;4919093;29;20075;-87
2023/06/11 09:48:05;;;;;;;13.40;4.68;;;28.00;99.90;;;;;;4925769;28;20047;-87
2023/06/11 09:50:33;;;;;;;8.68;4.45;;;28.10;99.90;;;;;;4927791;28;20157;-86
2023/06/11 09:53:02;;;;;;;10.93;4.32;;;28.10;99.90;;;;;;4935145;29;20050;-87
2023/06/11 09:55:31;;;;;;;11.10;4.53;;;28.10;99.90;;;;;;4920520;28;20515;-87
2023/06/11 09:57:57;;;;;;;9.10;4.20;;;28.20;99.90;;;;;;4918851;29;20059;-86
2023/06/11 10:00:23;;;;;;;13.40;4.22;;;28.30;99.90;;;;;;4930392;28;20134;-86
2023/06/11 10:02:49;;;;;;;8.05;4.03;;;28.40;99.90;;;;;;4931092;29;20177;-86
2023/06/11 10:05:15;;;;;;;12.90;4.05;;;28.50;99.90;;;;;;4925016;29;20341;-87
2023/06/11 10:07:51;;;;;;;8.13;4.30;;;28.50;99.90;;;;;;4919626;29;20073;-86
2023/06/11 10:10:21;;;;;;;10.00;4.10;;;28.60;99.90;;;;;;4918831;29;20491;-86
2023/06/11 10:12:50;;;;;;;7.85;4.07;;;28.60;99.90;;;;;;4934839;29;20121;-86
2023/06/11 10:15:17;;;;;;;8.40;3.83;;;28.70;99.90;;;;;;4934889;29;20280;-86
2023/06/11 10:17:47;;;;;;;9.93;3.97;;;28.80;99.90;;;;;;4918371;29;20071;-86
2023/06/11 10:20:25;;;;;;;11.25;4.55;;;28.80;99.90;;;;;;4919136;29;20440;-86
2023/06/11 10:23:04;;;;;;;5.78;3.90;;;28.90;99.90;;;;;;4910051;29;20099;-86
2023/06/11 10:25:34;;;;;;;10.18;4.00;;;28.90;99.90;;;;;;4914210;29;20138;-86
2023/06/11 10:28:00;;;;;;;13.32;4.63;;;28.90;99.90;;;;;;4916007;29;20047;-86
2023/06/11 10:30:26;;;;;;;8.10;3.47;;;28.90;99.90;;;;;;4915288;29;20051;-87
2023/06/11 10:32:53;;;;;;;9.10;4.28;;;29.00;99.90;;;;;;4915368;29;20396;-86
2023/06/11 10:35:25;;;;;;;9.32;3.85;;;29.10;99.90;;;;;;4915067;29;20050;-86
2023/06/11 10:38:00;;;;;;;13.98;3.80;;;29.20;99.90;;;;;;4915923;29;20130;-86
2023/06/11 10:40:33;;;;;;;9.18;3.80;;;29.20;99.70;;;;;;4913863;29;20079;-86
2023/06/11 10:42:59;;;;;;;9.05;3.67;;;29.30;99.90;;;;;;4915087;29;20135;-86
2023/06/11 10:45:35;;;;;;;6.20;3.30;;;29.40;98.90;;;;;;4899397;29;20039;-87
2023/06/11 10:48:00;;;;;;;7.22;3.50;;;29.40;98.40;;;;;;4899080;29;20510;-86
2023/06/11 10:50:31;;;;;;;7.03;3.53;;;29.50;97.90;;;;;;4915007;29;20060;-87
2023/06/11 10:53:02;;;;;;;10.07;4.07;;;29.50;97.20;;;;;;4898859;29;20047;-86
2023/06/11 10:55:30;;;;;;;10.05;3.53;;;29.50;97.20;;;;;;4898553;29;20134;-87
2023/06/11 10:57:58;;;;;;;9.98;3.80;;;29.50;96.90;;;;;;4915872;29;20048;-87
2023/06/11 11:00:28;;;;;;;7.70;3.40;;;29.50;97.70;;;;;;4898491;29;20044;-87
2023/06/11 11:02:56;;;;;;;6.25;3.55;;;29.60;96.80;;;;;;4915673;29;20047;-86
2023/06/11 11:05:22;;;;;;;7.15;3.35;;;29.70;96.70;;;;;;4889812;29;20048;-86
2023/06/11 11:07:48;;;;;;;8.70;3.67;;;29.80;96.20;;;;;;4898366;29;20114;-86
2023/06/11 11:10:20;;;;;;;8.43;3.55;;;29.80;95.40;;;;;;4915048;29;20475;-86
2023/06/11 11:12:47;;;;;;;6.18;3.20;;;29.80;95.50;;;;;;4914990;29;20137;-86
2023/06/11 11:15:13;;;;;;;9.30;3.85;;;29.90;95.70;;;;;;4913775;29;20111;-86
2023/06/11 11:17:40;;;;;;;9.35;3.58;;;30.00;94.40;;;;;;4914447;29;20040;-87
2023/06/11 11:20:07;;;;;;;5.75;3.15;;;30.00;93.70;;;;;;4914935;29;20054;-86
2023/06/11 11:22:34;;;;;;;10.23;3.28;;;30.10;93.10;;;;;;4916394;29;20096;-86
2023/06/11 11:25:03;;;;;;;5.15;3.10;;;30.10;93.00;;;;;;4916916;29;20051;-86
2023/06/11 11:27:29;;;;;;;11.38;3.00;;;30.20;93.30;;;;;;4925927;29;20047;-85
2023/06/11 11:29:59;;;;;;;6.00;2.97;;;30.40;93.50;;;;;;4933115;29;20073;-86
2023/06/11 11:32:29;;;;;;;5.65;3.03;;;30.40;91.90;;;;;;4917051;29;20550;-86
2023/06/11 11:34:56;;;;;;;9.48;3.00;;;30.50;92.30;;;;;;4916715;29;20050;-86
2023/06/11 11:37:22;;;;;;;7.65;3.28;;;30.50;91.10;;;;;;4917340;29;20094;-86
2023/06/11 11:39:49;;;;;;;7.80;3.30;;;30.40;91.00;;;;;;4926196;28;20434;-86
2023/06/11 11:42:15;;;;;;;9.73;3.17;;;30.40;90.30;;;;;;4924404;29;20054;-86
2023/06/11 11:44:42;;;;;;;7.25;3.28;;;30.50;90.00;;;;;;4917081;29;20399;-87
2023/06/11 11:47:10;;;;;;;6.88;3.17;;;30.60;90.40;;;;;;4918162;29;20275;-86
2023/06/11 11:49:36;;;;;;;7.47;3.92;;;30.60;90.10;;;;;;4932241;29;20047;-86
2023/06/11 11:52:03;;;;;;;5.88;3.05;;;30.70;88.60;;;;;;4933503;29;20150;-86
2023/06/11 11:54:29;;;;;;;8.90;3.53;;;30.70;87.00;;;;;;4915621;29;20078;-86
2023/06/11 11:57:06;;;;;;;25.15;4.18;;;30.60;86.90;;;;;;4916737;29;20078;-86
2023/06/11 11:59:38;;;;;;;9.73;3.17;;;30.60;86.80;;;;;;4905014;29;20507;-86
2023/06/11 12:02:04;;;;;;;8.80;3.30;;;30.60;84.50;;;;;;4933089;29;20130;-86
2023/06/11 12:04:36;;;;;;;8.80;3.78;;;30.60;84.60;;;;;;4912163;29;20579;-86
2023/06/11 12:07:03;;;;;;;8.38;3.50;;;30.50;83.50;;;;;;4914065;29;20035;-86
2023/06/11 12:09:29;;;;;;;8.75;3.30;;;30.60;84.30;;;;;;4915523;29;20043;-86
2023/06/11 12:11:55;;;;;;;11.45;3.92;;;30.60;84.50;;;;;;4916172;29;20043;-86
2023/06/11 12:14:20;;;;;;;6.35;3.70;;;30.70;84.30;;;;;;4931609;29;20138;-86
2023/06/11 12:16:48;;;;;;;7.65;3.60;;;30.80;85.00;;;;;;4932714;29;20047;-86
2023/06/11 12:19:15;;;;;;;9.13;3.22;;;31.00;83.30;;;;;;4915670;29;20051;-87
2023/06/11 12:21:41;;;;;;;11.02;3.67;;;31.00;83.60;;;;;;4923233;28;20196;-85
2023/06/11 12:24:14;;;;;;;6.93;3.40;;;31.10;83.40;;;;;;4925880;29;20140;-85
2023/06/11 12:26:42;;;;;;;5.93;3.47;;;30.90;81.50;;;;;;4916929;29;20047;-86
2023/06/11 12:29:10;;;;;;;6.45;3.42;;;30.70;81.40;;;;;;4916311;29;20102;-86
2023/06/11 12:31:37;;;;;;;7.78;3.30;;;30.70;81.30;;;;;;4915600;29;20031;-85
2023/06/11 12:34:02;;;;;;;6.13;3.17;;;30.70;80.10;;;;;;4916753;29;20047;-86
2023/06/11 12:36:28;;;;;;;8.60;3.80;;;30.80;80.90;;;;;;4915885;29;20078;-86
2023/06/11 12:38:54;;;;;;;7.15;3.08;;;30.90;81.90;;;;;;4932359;29;20371;-86